Pagrindinis puslapis
METAR-TAF:

METAR-TAF

Oro uostai :

Double Eagle II Airport

Albukerkė, Naujoji Meksika, Jungtinės Amerikos Valstijos

platuma: 35-08-42N, ilguma: 106-47-42W, Aukštis: 1779 m

Dabartinis oras

Ataskaita buvo paskelbta 14 minutes, ne 10:35 UTC
Ramus vėjas
Temperatūra 2°C
Drėgmė 55%
Slėgis 1024 hPa
Matomumas: 16.1 km
Giedras dangus

METAR: KAEG 281035Z AUTO 00000KT 10SM CLR 02/M06 A3024 RMK AO2 T00161057

Laikas: 04:49 (10:49 UTC)

Prognozė

Ataskaita buvo paskelbta 5 valandos ir 25 minutes, ne 05:24 UTC
Prognozė galioja nuo 28 metu 06 UTC su 29 metu 06 UTC
Vėjas 15 kt iš Šiaurės Vakarų su gūsio iki 22 kt
Matomumas: 10 km
Giedras dangus
Nuo 28 metu 1200 UTC
Vėjas 10 kt iš Šiaurės Vakarų
Matomumas: 10 km
Giedras dangus
Nuo 29 metu 0100 UTC
Vėjas 6 kt iš Šiaurės Vakarų
Matomumas: 10 km
Giedras dangus

TAF: KAEG 280524Z 2806/2906 32015G22KT P6SM SKC FM281200 32010KT P6SM SKC FM290100 32006KT P6SM SKC

Orai ataskaitas ir orų prognozės (METAR, TAF).

turimą stotys yra geltonos ir raudonos taškus žemėlapyje.

Perkelti pele per norėdami pamatyti stoties vardą.

Tada spustelėkite, norėdami matyti oro stebėjimo ir prognozės.

Norėdami pakeisti žemėlapį: spustelėkite ant žalios mygtukų su juodo kryžiaus žemyn,; žalią mygtuką su brūkšneliu, jei norite nutolinti; arba žalių rodyklių gretimoms žemėlapius.


METAR-TAF: